Time;durP1;ratioP1;P1;durP2;ratioP2;P2;SDS_P1;SDS_P2;PMS_P1;PMS_P2;Temp;Humidity;BMP_temperature;BMP_pressure;BME280_temperature;BME280_humidity;BME280_pressure;Samples;Min_cycle;Max_cycle;Signal;HPM_P1;HPM_P2
2022/01/31 00:01:40;;;;;;;10.75;3.92;;;;;;;7.89;59.07;101598.06;5072550;28;20040;-59
2022/01/31 00:04:08;;;;;;;12.43;4.13;;;;;;;7.87;59.10;101573.31;5075882;28;20049;-59
2022/01/31 00:06:35;;;;;;;14.18;5.00;;;;;;;7.88;59.31;101553.56;5080721;28;20132;-59
2022/01/31 00:09:03;;;;;;;9.15;4.25;;;;;;;7.87;59.18;101535.88;5081163;28;20057;-60
2022/01/31 00:11:40;;;;;;;10.73;3.97;;;;;;;7.86;58.95;101501.25;5081819;28;20523;-59
2022/01/31 00:14:15;;;;;;;18.65;5.00;;;;;;;7.86;59.32;101483.34;5081060;28;20048;-59
2022/01/31 00:16:44;;;;;;;13.05;4.30;;;;;;;7.84;59.34;101472.84;5082671;28;20052;-59
2022/01/31 00:19:12;;;;;;;13.35;5.10;;;;;;;7.83;59.53;101468.50;5070439;28;20175;-59
2022/01/31 00:21:40;;;;;;;14.65;3.85;;;;;;;7.83;59.54;101457.81;5072940;28;20052;-59
2022/01/31 00:24:08;;;;;;;15.15;4.60;;;;;;;7.83;59.07;101441.75;5078860;28;20088;-59
2022/01/31 00:26:36;;;;;;;11.95;3.95;;;;;;;7.83;59.27;101432.88;5076979;28;20049;-59
2022/01/31 00:29:03;;;;;;;13.13;4.45;;;;;;;7.83;59.46;101423.00;5076975;28;20099;-59
2022/01/31 00:31:32;;;;;;;18.00;4.47;;;;;;;7.84;59.60;101419.31;5077332;28;20052;-59
2022/01/31 00:34:01;;;;;;;14.05;5.18;;;;;;;7.83;59.30;101414.16;5083414;28;20470;-59
2022/01/31 00:36:29;;;;;;;14.88;4.65;;;;;;;7.83;59.93;101406.13;5081300;28;20458;-59
2022/01/31 00:38:57;;;;;;;13.80;4.40;;;;;;;7.83;59.92;101385.56;5082697;28;20055;-59
2022/01/31 00:41:24;;;;;;;10.38;3.63;;;;;;;7.83;59.86;101382.06;5078088;28;20045;-59
2022/01/31 00:43:59;;;;;;;14.65;4.68;;;;;;;7.81;60.28;101368.88;5070221;28;20106;-59
2022/01/31 00:46:34;;;;;;;15.43;4.68;;;;;;;7.80;59.60;101367.19;5079102;28;20139;-59
2022/01/31 00:49:03;;;;;;;11.70;5.90;;;;;;;7.80;60.08;101353.00;5079282;28;20159;-59
2022/01/31 00:51:31;;;;;;;13.30;4.55;;;;;;;7.77;59.86;101331.97;5069082;28;20125;-59
2022/01/31 00:53:59;;;;;;;15.80;4.32;;;;;;;7.80;60.48;101326.25;5081955;28;20083;-59
2022/01/31 00:56:26;;;;;;;17.67;4.05;;;;;;;7.79;60.46;101303.19;5082214;28;20102;-59
2022/01/31 00:58:54;;;;;;;15.57;4.65;;;;;;;7.78;60.60;101298.84;5078003;28;20052;-59
2022/01/31 01:01:22;;;;;;;14.30;3.95;;;;;;;7.77;61.17;101302.53;5071105;28;20136;-58
2022/01/31 01:03:50;;;;;;;21.17;5.40;;;;;;;7.76;60.69;101283.00;5081261;28;20048;-59
2022/01/31 01:06:19;;;;;;;13.15;5.20;;;;;;;7.77;60.60;101273.94;5078755;28;20045;-59
2022/01/31 01:08:47;;;;;;;12.60;5.00;;;;;;;7.75;61.10;101265.28;5081992;28;20049;-59
2022/01/31 01:11:15;;;;;;;11.50;4.45;;;;;;;7.77;60.97;101265.09;5081896;28;20365;-59
2022/01/31 01:13:42;;;;;;;12.75;3.70;;;;;;;7.75;61.29;101245.72;5080536;28;20283;-59
2022/01/31 01:16:10;;;;;;;12.52;3.92;;;;;;;7.74;61.77;101238.72;5082102;28;20159;-59
2022/01/31 01:18:38;;;;;;;17.65;4.53;;;;;;;7.72;62.01;101240.75;5079507;28;20493;-59
2022/01/31 01:21:06;;;;;;;8.98;3.65;;;;;;;7.71;62.06;101226.56;5072714;28;20045;-59
2022/01/31 01:23:35;;;;;;;12.43;3.53;;;;;;;7.72;61.90;101217.50;5081228;28;20102;-59
2022/01/31 01:26:03;;;;;;;11.73;3.13;;;;;;;7.72;61.68;101211.34;5080843;28;20072;-59
2022/01/31 01:28:31;;;;;;;13.10;3.72;;;;;;;7.73;61.71;101208.47;5078432;28;20056;-58
2022/01/31 01:30:59;;;;;;;11.65;4.60;;;;;;;7.74;61.32;101187.88;5071666;28;20041;-59
2022/01/31 01:33:27;;;;;;;13.63;4.45;;;;;;;7.69;62.12;101169.75;5078114;28;20053;-59
2022/01/31 01:35:55;;;;;;;9.48;3.20;;;;;;;7.75;61.70;101160.13;5071586;28;20059;-58
2022/01/31 01:38:28;;;;;;;14.40;5.40;;;;;;;7.73;62.17;101154.97;5079742;28;20048;-59
2022/01/31 01:40:59;;;;;;;11.15;3.78;;;;;;;7.72;62.05;101152.47;5072279;28;20065;-59
2022/01/31 01:43:29;;;;;;;15.55;3.78;;;;;;;7.72;62.36;101139.09;5078211;28;20045;-59
2022/01/31 01:45:59;;;;;;;16.90;4.20;;;;;;;7.71;62.35;101124.91;5081111;28;20067;-58
2022/01/31 01:48:27;;;;;;;12.73;4.00;;;;;;;7.72;62.19;101123.88;5072695;28;20048;-59
2022/01/31 01:50:55;;;;;;;14.15;4.28;;;;;;;7.71;62.26;101116.88;5080806;28;20071;-59
2022/01/31 01:53:24;;;;;;;14.68;3.67;;;;;;;7.72;62.61;101112.34;5081072;28;20051;-58
2022/01/31 01:55:53;;;;;;;14.93;4.15;;;;;;;7.70;63.04;101099.16;5068196;28;20059;-58
2022/01/31 01:58:23;;;;;;;13.00;3.35;;;;;;;7.73;62.95;101087.25;5081263;28;20267;-58
2022/01/31 02:00:59;;;;;;;10.70;3.30;;;;;;;7.70;63.28;101077.78;5076412;28;20045;-58
2022/01/31 02:03:28;;;;;;;11.77;3.45;;;;;;;7.69;63.07;101070.75;5073209;28;20053;-58
2022/01/31 02:05:57;;;;;;;17.17;4.63;;;;;;;7.69;63.24;101059.25;5068516;28;20044;-57
2022/01/31 02:08:27;;;;;;;14.75;4.25;;;;;;;7.69;63.74;101046.69;5081486;28;20048;-58
2022/01/31 02:10:55;;;;;;;8.55;3.40;;;;;;;7.68;64.16;101023.63;5075889;28;20041;-58
2022/01/31 02:13:26;;;;;;;11.50;3.60;;;;;;;7.67;63.68;101030.00;5081147;28;20049;-59
2022/01/31 02:15:54;;;;;;;13.63;3.20;;;;;;;7.68;64.04;101028.16;5078695;28;20095;-57
2022/01/31 02:18:25;;;;;;;10.32;2.72;;;;;;;7.67;64.40;101016.63;5075448;28;20075;-58
2022/01/31 02:20:54;;;;;;;12.60;3.45;;;;;;;7.68;63.95;101015.63;5069977;28;20128;-58
2022/01/31 02:23:23;;;;;;;10.15;2.88;;;;;;;7.63;63.61;100998.50;5078051;28;20059;-58
2022/01/31 02:25:57;;;;;;;10.43;2.97;;;;;;;7.68;64.13;100990.72;5080500;28;20455;-59
2022/01/31 02:28:27;;;;;;;13.07;3.00;;;;;;;7.68;64.34;100991.53;5078157;28;20114;-58
2022/01/31 02:30:55;;;;;;;10.27;2.58;;;;;;;7.68;64.80;100990.72;5079735;28;20045;-58
2022/01/31 02:33:24;;;;;;;7.25;2.60;;;;;;;7.67;64.08;100992.56;5073494;28;20041;-58
2022/01/31 02:35:56;;;;;;;11.80;2.80;;;;;;;7.66;64.68;100988.25;5072189;28;20044;-58
2022/01/31 02:38:25;;;;;;;13.55;4.22;;;;;;;7.66;64.71;100988.25;5069565;28;20052;-58
2022/01/31 02:40:54;;;;;;;14.35;3.55;;;;;;;7.63;65.29;100983.28;5066908;28;20083;-57
2022/01/31 02:43:23;;;;;;;8.10;2.80;;;;;;;7.63;65.28;100979.78;5078824;28;20047;-58
2022/01/31 02:45:51;;;;;;;11.27;3.33;;;;;;;7.67;64.83;100986.38;5081300;28;20041;-58
2022/01/31 02:48:22;;;;;;;9.45;3.10;;;;;;;7.64;66.14;100987.63;5087094;28;20052;-57
2022/01/31 02:50:50;;;;;;;8.90;2.40;;;;;;;7.64;66.09;100979.59;5079791;28;20071;-58
2022/01/31 02:53:25;;;;;;;9.60;2.40;;;;;;;7.60;65.60;100956.94;5086663;28;20041;-58
2022/01/31 02:55:54;;;;;;;5.13;1.83;;;;;;;7.63;66.22;100942.34;5068361;28;20041;-58
2022/01/31 02:58:23;;;;;;;9.68;3.17;;;;;;;7.62;66.55;100943.38;5074882;28;20051;-59
2022/01/31 03:00:52;;;;;;;12.05;2.63;;;;;;;7.60;66.47;100940.06;5072383;28;20052;-57
2022/01/31 03:03:20;;;;;;;9.07;2.50;;;;;;;7.62;66.41;100930.81;5084436;28;20095;-58
2022/01/31 03:05:48;;;;;;;7.32;3.38;;;;;;;7.62;66.54;100941.50;5084534;28;20074;-58
2022/01/31 03:08:16;;;;;;;10.48;2.13;;;;;;;7.64;67.21;100939.47;5073549;28;20478;-58
2022/01/31 03:10:45;;;;;;;10.27;2.53;;;;;;;7.63;67.41;100935.16;5065291;28;20049;-59
2022/01/31 03:13:13;;;;;;;8.63;2.33;;;;;;;7.62;67.76;100928.16;5073912;28;20450;-58
2022/01/31 03:15:41;;;;;;;10.60;2.45;;;;;;;7.64;67.00;100934.13;5068646;28;20075;-58
2022/01/31 03:18:08;;;;;;;5.35;2.42;;;;;;;7.65;67.88;100940.28;5077535;28;20057;-59
2022/01/31 03:20:36;;;;;;;6.65;1.90;;;;;;;7.66;68.42;100941.94;5076916;28;20406;-58
2022/01/31 03:23:04;;;;;;;7.88;2.53;;;;;;;7.65;67.90;100937.63;5082069;28;20064;-58
2022/01/31 03:25:33;;;;;;;4.43;1.75;;;;;;;7.67;68.05;100924.88;5078501;28;20442;-59
2022/01/31 03:28:02;;;;;;;11.10;3.08;;;;;;;7.66;68.70;100928.56;5067929;28;20040;-58
2022/01/31 03:30:30;;;;;;;7.38;3.15;;;;;;;7.66;68.88;100923.22;5083747;28;20040;-57
2022/01/31 03:32:58;;;;;;;11.70;2.65;;;;;;;7.64;68.83;100923.41;5071523;28;20041;-58
2022/01/31 03:35:27;;;;;;;6.40;2.55;;;;;;;7.65;68.18;100930.41;5077164;28;20053;-58
2022/01/31 03:37:54;;;;;;;10.50;3.03;;;;;;;7.65;69.33;100919.72;5082798;28;20048;-58
2022/01/31 03:40:22;;;;;;;9.55;2.40;;;;;;;7.64;68.80;100911.91;5073090;28;20059;-58
2022/01/31 03:42:50;;;;;;;8.38;2.38;;;;;;;7.66;69.29;100899.97;5067321;28;20080;-59
2022/01/31 03:45:19;;;;;;;14.43;3.15;;;;;;;7.65;68.49;100916.22;5074637;28;20422;-59
2022/01/31 03:47:47;;;;;;;9.18;2.58;;;;;;;7.66;68.97;100901.81;5068665;28;20301;-58
2022/01/31 03:50:18;;;;;;;10.13;3.00;;;;;;;7.65;69.79;100894.81;5082809;28;20056;-57
2022/01/31 03:52:46;;;;;;;11.25;2.63;;;;;;;7.65;69.34;100908.19;5073714;28;20401;-58
2022/01/31 03:55:14;;;;;;;17.63;4.70;;;;;;;7.62;69.15;100895.22;5078101;28;20048;-59
2022/01/31 03:57:43;;;;;;;10.70;2.78;;;;;;;7.63;69.72;100902.22;5076907;28;20071;-59
2022/01/31 04:00:13;;;;;;;10.57;2.83;;;;;;;7.63;69.45;100904.91;5075822;28;20131;-58
2022/01/31 04:02:43;;;;;;;16.70;3.00;;;;;;;7.65;69.38;100909.03;5078473;28;20484;-58
2022/01/31 04:05:11;;;;;;;11.05;3.45;;;;;;;7.66;69.64;100901.81;5078571;28;20054;-58
2022/01/31 04:07:39;;;;;;;17.48;4.32;;;;;;;7.66;69.50;100904.50;5083079;28;20477;-59
2022/01/31 04:10:08;;;;;;;12.07;3.25;;;;;;;7.68;69.03;100907.78;5083200;28;20072;-58
2022/01/31 04:12:36;;;;;;;17.70;3.03;;;;;;;7.69;69.42;100902.25;5081532;28;20063;-58
2022/01/31 04:15:04;;;;;;;9.85;3.38;;;;;;;7.68;68.73;100892.56;5076796;28;20080;-59
2022/01/31 04:17:33;;;;;;;10.15;2.42;;;;;;;7.68;68.60;100905.94;5075467;28;20424;-58
2022/01/31 04:20:02;;;;;;;16.75;3.13;;;;;;;7.68;68.25;100897.91;5078832;28;20072;-58
2022/01/31 04:22:33;;;;;;;15.10;3.78;;;;;;;7.67;69.33;100890.91;5075197;28;20036;-58
2022/01/31 04:25:03;;;;;;;14.10;2.83;;;;;;;7.67;68.03;100893.59;5082831;28;20175;-58
2022/01/31 04:27:43;;;;;;;13.10;2.95;;;;;;;7.67;68.65;100876.72;5083616;28;20044;-58
2022/01/31 04:30:14;;;;;;;16.77;3.63;;;;;;;7.70;68.13;100873.63;5074234;28;20063;-58
2022/01/31 04:32:41;;;;;;;11.32;3.45;;;;;;;7.67;68.40;100882.06;5083474;28;20148;-58
2022/01/31 04:35:10;;;;;;;12.85;3.60;;;;;;;7.66;67.86;100870.53;5079896;28;20055;-58
2022/01/31 04:37:38;;;;;;;12.90;2.60;;;;;;;7.70;67.92;100885.16;5082340;28;20053;-58
2022/01/31 04:40:13;;;;;;;14.05;2.55;;;;;;;7.71;67.62;100875.28;5079810;28;20118;-58
2022/01/31 04:42:43;;;;;;;14.45;3.55;;;;;;;7.70;68.05;100877.13;5072687;28;20048;-58
2022/01/31 04:45:11;;;;;;;12.40;2.53;;;;;;;7.69;67.80;100878.16;5069731;28;20052;-58
2022/01/31 04:47:39;;;;;;;15.05;2.35;;;;;;;7.67;67.64;100874.88;5073186;28;20049;-59
2022/01/31 04:50:08;;;;;;;16.35;2.75;;;;;;;7.66;67.30;100883.09;5082703;28;20487;-58
2022/01/31 04:52:38;;;;;;;18.50;4.53;;;;;;;7.65;67.33;100874.25;5081777;28;20049;-58
2022/01/31 04:55:07;;;;;;;22.50;4.43;;;;;;;7.67;67.21;100892.78;5080025;28;20044;-59
2022/01/31 04:57:35;;;;;;;14.55;3.08;;;;;;;7.62;66.59;100880.00;5075501;28;20060;-58
2022/01/31 05:00:05;;;;;;;14.85;3.30;;;;;;;7.61;66.16;100877.53;5081886;28;20406;-58
2022/01/31 05:02:33;;;;;;;19.65;3.58;;;;;;;7.59;66.70;100884.94;5076161;28;20166;-57
2022/01/31 05:05:01;;;;;;;11.13;2.80;;;;;;;7.59;66.69;100876.91;5071939;28;20356;-58
2022/01/31 05:07:29;;;;;;;18.85;3.17;;;;;;;7.60;66.14;100876.69;5081642;28;20048;-58
2022/01/31 05:09:58;;;;;;;18.85;3.42;;;;;;;7.68;66.17;100873.84;5069027;28;20467;-58
2022/01/31 05:12:27;;;;;;;13.60;2.95;;;;;;;7.63;65.78;100870.94;5074944;28;20048;-58
2022/01/31 05:14:54;;;;;;;19.70;3.72;;;;;;;7.55;65.93;100857.75;5080635;28;20080;-58
2022/01/31 05:17:22;;;;;;;10.27;2.85;;;;;;;7.60;65.78;100857.16;5076066;28;20041;-58
2022/01/31 05:19:50;;;;;;;15.07;3.85;;;;;;;7.61;65.45;100856.97;5076332;28;20052;-58
2022/01/31 05:22:18;;;;;;;12.90;3.30;;;;;;;7.59;64.90;100848.31;5071705;28;20067;-58
2022/01/31 05:24:45;;;;;;;18.27;3.55;;;;;;;7.60;65.21;100849.13;5081270;28;20083;-58
2022/01/31 05:27:15;;;;;;;13.27;2.70;;;;;;;7.60;65.02;100836.59;5082311;28;20442;-58
2022/01/31 05:29:42;;;;;;;12.75;2.75;;;;;;;7.59;65.53;100845.63;5075558;28;20151;-58
2022/01/31 05:32:10;;;;;;;14.20;3.38;;;;;;;7.61;65.05;100840.09;5071556;28;20045;-58
2022/01/31 05:34:38;;;;;;;15.73;3.03;;;;;;;7.59;65.05;100826.91;5075146;28;20080;-58
2022/01/31 05:37:06;;;;;;;17.38;2.85;;;;;;;7.60;64.58;100831.22;5080721;28;20048;-58
2022/01/31 05:39:34;;;;;;;12.13;2.97;;;;;;;7.61;65.10;100829.38;5081693;28;20049;-58
2022/01/31 05:42:01;;;;;;;17.50;3.47;;;;;;;7.60;65.02;100820.53;5078345;28;20081;-59
2022/01/31 05:44:30;;;;;;;9.52;2.30;;;;;;;7.57;64.48;100820.94;5081059;28;20044;-57
2022/01/31 05:47:00;;;;;;;11.98;2.70;;;;;;;7.67;64.85;100825.91;5074716;28;20138;-58
2022/01/31 05:49:32;;;;;;;13.20;4.47;;;;;;;7.66;64.60;100808.19;5075091;28;20048;-58
2022/01/31 05:52:04;;;;;;;21.20;3.45;;;;;;;7.63;65.25;100814.78;5078757;28;20078;-58
2022/01/31 05:54:33;;;;;;;14.70;2.85;;;;;;;7.59;64.99;100818.88;5087252;28;20049;-58
2022/01/31 05:57:01;;;;;;;14.20;3.08;;;;;;;7.55;64.47;100798.94;5069386;28;20045;-58
2022/01/31 05:59:30;;;;;;;15.93;3.08;;;;;;;7.57;65.13;100818.28;5082982;28;20049;-58
2022/01/31 06:02:00;;;;;;;13.40;2.75;;;;;;;7.56;65.20;100813.13;5083330;28;20040;-58
2022/01/31 06:04:29;;;;;;;14.68;3.00;;;;;;;7.54;65.32;100794.59;5093330;28;20040;-58
2022/01/31 06:06:57;;;;;;;15.52;4.20;;;;;;;7.53;65.73;100809.00;5082754;28;20048;-58
2022/01/31 06:09:26;;;;;;;14.20;2.85;;;;;;;7.45;66.11;100793.16;5079551;28;20285;-59
2022/01/31 06:11:55;;;;;;;15.30;3.03;;;;;;;7.36;66.46;100840.63;5077109;28;20057;-58
2022/01/31 06:14:23;;;;;;;18.05;3.65;;;;;;;7.32;66.60;100825.19;5064039;28;20075;-58
2022/01/31 06:16:53;;;;;;;11.52;2.42;;;;;;;7.32;66.85;100818.00;5062515;28;20073;-58
2022/01/31 06:19:20;;;;;;;12.50;3.10;;;;;;;7.37;67.08;100810.19;5062208;28;20060;-58
2022/01/31 06:21:48;;;;;;;13.60;2.83;;;;;;;7.39;67.50;100839.41;5085989;28;20051;-58
2022/01/31 06:24:16;;;;;;;12.95;3.00;;;;;;;7.41;66.98;100838.19;5087792;28;20041;-58
2022/01/31 06:26:44;;;;;;;16.67;3.60;;;;;;;7.39;67.49;100855.44;5077607;28;20052;-58
2022/01/31 06:29:12;;;;;;;15.77;3.50;;;;;;;7.37;67.31;100838.78;5067248;28;20036;-56
2022/01/31 06:31:40;;;;;;;15.23;3.67;;;;;;;7.36;67.35;100837.13;5082258;28;20135;-57
2022/01/31 06:34:09;;;;;;;17.58;2.90;;;;;;;7.36;67.67;100848.66;5085252;28;20052;-58
2022/01/31 06:36:36;;;;;;;18.73;3.63;;;;;;;7.34;67.35;100829.31;5075216;28;20044;-58
2022/01/31 06:39:04;;;;;;;16.15;2.88;;;;;;;7.40;67.05;100857.09;5081318;28;20166;-58
2022/01/31 06:41:32;;;;;;;14.45;3.78;;;;;;;7.31;66.95;100843.09;5072310;28;20084;-59
2022/01/31 06:44:00;;;;;;;17.20;3.08;;;;;;;7.33;67.17;100843.72;5069147;28;20049;-59
2022/01/31 06:46:28;;;;;;;15.40;2.45;;;;;;;7.36;67.14;100835.28;5071913;28;20055;-58
2022/01/31 06:48:55;;;;;;;12.88;2.78;;;;;;;7.34;67.32;100849.88;5069061;28;20075;-60
2022/01/31 06:51:25;;;;;;;15.45;3.13;;;;;;;7.33;67.37;100854.41;5078176;28;20583;-58
2022/01/31 06:53:57;;;;;;;10.65;2.65;;;;;;;7.23;67.31;100845.09;5079559;28;20330;-59
2022/01/31 06:56:29;;;;;;;19.25;4.45;;;;;;;7.27;66.82;100847.19;5084938;28;20051;-58
2022/01/31 06:58:58;;;;;;;17.92;3.72;;;;;;;7.25;66.70;100848.41;5063948;28;20112;-57
2022/01/31 07:01:26;;;;;;;19.25;4.65;;;;;;;7.19;67.11;100856.19;5081901;28;20064;-58
2022/01/31 07:03:55;;;;;;;19.58;3.70;;;;;;;7.17;66.79;100838.72;5071759;28;20075;-59
2022/01/31 07:06:25;;;;;;;18.73;2.92;;;;;;;7.15;67.09;100854.13;5082518;28;20048;-57
2022/01/31 07:08:53;;;;;;;15.93;2.90;;;;;;;7.17;66.98;100852.06;5068866;28;20060;-58
2022/01/31 07:11:23;;;;;;;16.15;2.50;;;;;;;7.21;66.84;100855.19;5080033;28;21246;-58
2022/01/31 07:14:01;;;;;;;16.55;2.97;;;;;;;7.19;66.70;100853.53;5080612;28;20074;-58
2022/01/31 07:16:29;;;;;;;10.65;2.90;;;;;;;7.19;67.37;100845.50;5083034;28;20067;-58
2022/01/31 07:19:03;;;;;;;11.93;2.75;;;;;;;7.25;66.93;100848.41;5078364;28;20062;-59
2022/01/31 07:21:37;;;;;;;16.30;3.40;;;;;;;7.24;66.92;100846.75;5081293;28;20507;-59
2022/01/31 07:24:18;;;;;;;20.67;3.17;;;;;;;7.25;67.58;100849.22;5079398;28;20545;-60
2022/01/31 07:26:47;;;;;;;15.23;3.03;;;;;;;7.25;67.20;100843.06;5083536;28;20089;-60
2022/01/31 07:29:16;;;;;;;13.90;3.45;;;;;;;7.24;67.49;100838.75;4378273;28;10000820;-60
2022/01/31 07:31:45;;;;;;;15.52;3.20;;;;;;;7.26;66.92;100831.34;5075360;28;20075;-57
2022/01/31 07:34:14;;;;;;;13.52;3.45;;;;;;;7.26;67.10;100826.00;5081224;28;20044;-58
2022/01/31 07:36:44;;;;;;;14.32;2.80;;;;;;;7.25;67.40;100816.31;5075585;28;20079;-58
2022/01/31 07:39:12;;;;;;;12.43;3.13;;;;;;;7.20;67.30;100816.94;5084286;28;20331;-58
2022/01/31 07:41:41;;;;;;;13.15;3.67;;;;;;;7.22;67.59;100816.72;5083462;28;20093;-59
2022/01/31 07:44:09;;;;;;;12.90;3.47;;;;;;;7.26;66.84;100831.34;5060747;28;20084;-58
2022/01/31 07:46:38;;;;;;;12.30;3.05;;;;;;;7.28;66.78;100838.13;5075763;28;20044;-56
2022/01/31 07:49:06;;;;;;;22.50;4.32;;;;;;;7.25;66.79;100830.53;5075711;28;20443;-56
2022/01/31 07:51:36;;;;;;;19.65;4.10;;;;;;;7.25;66.90;100848.41;5076176;28;20057;-56
2022/01/31 07:54:05;;;;;;;11.48;3.03;;;;;;;7.22;67.21;100848.81;5083472;28;20391;-57
2022/01/31 07:56:33;;;;;;;13.40;2.75;;;;;;;7.06;67.21;100842.78;5075874;28;20072;-57
2022/01/31 07:59:01;;;;;;;23.50;4.07;;;;;;;7.16;67.29;100855.78;5075178;28;20075;-55
2022/01/31 08:01:29;;;;;;;23.10;5.47;;;;;;;7.17;67.43;100873.47;5078338;28;20056;-57
2022/01/31 08:03:57;;;;;;;22.40;5.43;;;;;;;7.15;67.03;100872.84;5083412;28;20079;-55
2022/01/31 08:06:25;;;;;;;19.10;3.78;;;;;;;7.16;67.25;100863.78;5079107;28;20052;-57
2022/01/31 08:08:54;;;;;;;21.08;5.28;;;;;;;7.16;67.20;100879.81;5065130;28;20102;-57
2022/01/31 08:11:25;;;;;;;25.83;3.60;;;;;;;7.08;67.43;100867.47;5074068;28;20160;-57
2022/01/31 08:13:57;;;;;;;20.50;4.13;;;;;;;7.05;67.64;100864.34;5077519;28;20080;-58
2022/01/31 08:16:25;;;;;;;19.67;3.47;;;;;;;7.16;67.09;100874.47;5085313;28;20060;-55
2022/01/31 08:18:52;;;;;;;24.13;4.00;;;;;;;7.09;67.21;100871.78;5082444;28;20048;-57
2022/01/31 08:21:21;;;;;;;23.00;4.15;;;;;;;7.05;67.41;100859.84;5069395;28;20045;-57
2022/01/31 08:23:49;;;;;;;19.27;4.13;;;;;;;7.08;67.38;100843.41;5073253;28;20076;-57
2022/01/31 08:26:17;;;;;;;18.88;5.00;;;;;;;7.16;67.67;100848.59;5071598;28;20121;-58
2022/01/31 08:28:53;;;;;;;22.88;4.20;;;;;;;7.27;67.17;100849.84;5070733;28;20052;-58
2022/01/31 08:31:28;;;;;;;22.02;4.03;;;;;;;7.45;66.27;100866.16;5078043;28;21477;-59
2022/01/31 08:34:19;;;;;;;13.40;3.28;;;;;;;7.56;65.63;100856.75;5077591;28;20055;-58
2022/01/31 08:36:47;;;;;;;21.58;5.35;;;;;;;7.47;65.48;100876.66;5081179;28;20113;-56
2022/01/31 08:39:17;;;;;;;12.90;2.95;;;;;;;7.63;65.50;100864.78;5079424;28;20044;-55
2022/01/31 08:41:47;;;;;;;19.80;3.97;;;;;;;7.69;65.16;100861.28;5078168;28;20083;-58
2022/01/31 08:44:18;;;;;;;19.50;4.25;;;;;;;7.75;64.30;100884.56;5077445;28;20094;-58
2022/01/31 08:46:47;;;;;;;21.88;4.32;;;;;;;7.87;64.16;100877.59;5082485;28;20178;-58
2022/01/31 08:49:16;;;;;;;18.85;4.03;;;;;;;7.88;64.09;100884.59;5080554;28;20082;-69
2022/01/31 08:51:45;;;;;;;24.27;5.07;;;;;;;7.89;64.63;100877.38;5079320;28;20045;-59
2022/01/31 08:54:14;;;;;;;28.27;3.67;;;;;;;7.89;63.75;100864.00;5079254;28;20169;-59
2022/01/31 08:56:45;;;;;;;21.10;4.65;;;;;;;7.94;63.77;100856.19;5076490;28;20056;-59
2022/01/31 08:59:18;;;;;;;17.45;3.63;;;;;;;8.02;63.29;100856.81;5081621;28;20049;-58
2022/01/31 09:01:54;;;;;;;19.60;4.07;;;;;;;8.05;63.47;100851.06;5080160;28;20068;-57
2022/01/31 09:04:33;;;;;;;28.25;4.68;;;;;;;8.14;63.05;100868.56;5079629;28;20048;-58
2022/01/31 09:07:02;;;;;;;20.92;4.05;;;;;;;8.15;63.02;100859.50;5085758;28;20052;-58
2022/01/31 09:09:31;;;;;;;21.95;4.88;;;;;;;8.19;62.70;100880.50;5072839;28;20119;-58
2022/01/31 09:12:06;;;;;;;23.33;4.72;;;;;;;8.06;63.39;100897.38;5080531;28;20056;-58
2022/01/31 09:14:38;;;;;;;20.67;5.50;;;;;;;7.83;63.46;100893.22;5075791;28;20040;-58
2022/01/31 09:17:11;;;;;;;25.38;5.32;;;;;;;7.71;64.44;100900.19;5079826;28;20048;-58
2022/01/31 09:19:39;;;;;;;22.38;4.82;;;;;;;7.57;65.16;100903.84;5078724;28;20052;-58
2022/01/31 09:22:07;;;;;;;24.38;4.82;;;;;;;7.54;66.06;100924.81;5083048;28;20068;-58
2022/01/31 09:24:38;;;;;;;22.90;4.07;;;;;;;7.33;66.17;100902.53;5081470;28;20069;-59
2022/01/31 09:27:06;;;;;;;24.90;3.70;;;;;;;7.34;66.90;100903.34;5092860;28;20098;-58
2022/01/31 09:29:34;;;;;;;20.65;3.67;;;;;;;7.24;67.55;100914.41;5072546;28;20071;-58
2022/01/31 09:32:05;;;;;;;24.23;4.03;;;;;;;7.27;67.25;100876.59;5081319;28;20076;-59
2022/01/31 09:34:33;;;;;;;20.92;4.55;;;;;;;7.26;66.93;100887.47;5087255;28;20045;-59
2022/01/31 09:37:02;;;;;;;21.17;4.30;;;;;;;7.34;66.71;100898.81;5087211;28;20044;-59
2022/01/31 09:39:30;;;;;;;18.65;3.55;;;;;;;7.39;66.80;100904.41;5078253;28;20089;-58
2022/01/31 09:42:04;;;;;;;15.75;4.07;;;;;;;7.34;66.63;100914.03;5078207;28;20059;-58
2022/01/31 09:44:44;;;;;;;15.07;3.60;;;;;;;7.40;66.05;100910.56;5078654;28;20048;-59
2022/01/31 09:47:23;;;;;;;21.95;4.57;;;;;;;7.53;66.02;100904.44;5085079;28;20071;-58
2022/01/31 09:49:51;;;;;;;26.38;5.35;;;;;;;7.68;65.63;100915.81;5077529;28;20032;-58
2022/01/31 09:52:18;;;;;;;21.13;6.07;;;;;;;7.79;64.74;100916.06;5078164;28;20048;-58
2022/01/31 09:54:48;;;;;;;25.95;3.97;;;;;;;7.84;65.21;100943.03;5063762;28;20041;-59
2022/01/31 09:57:18;;;;;;;22.40;3.33;;;;;;;7.91;64.49;100937.69;5078165;28;20480;-58
2022/01/31 09:59:46;;;;;;;19.85;3.80;;;;;;;7.86;64.78;100944.69;5078451;28;20111;-58
2022/01/31 10:02:15;;;;;;;15.43;4.65;;;;;;;7.68;65.10;100946.06;5082621;28;20071;-59
2022/01/31 10:04:45;;;;;;;17.17;4.00;;;;;;;7.62;65.81;100946.03;5083016;28;20055;-59
2022/01/31 10:07:14;;;;;;;27.67;4.35;;;;;;;7.57;65.72;100951.16;5087440;28;20051;-59
2022/01/31 10:09:46;;;;;;;22.83;5.05;;;;;;;7.44;66.76;100962.63;5067564;28;20203;-59
2022/01/31 10:12:26;;;;;;;33.65;4.63;;;;;;;7.31;67.22;100957.22;5076271;28;20052;-59
2022/01/31 10:17:43;;;;;;;29.67;5.75;;;;;;;7.06;68.28;100976.41;5080137;28;20053;-59
2022/01/31 10:20:25;;;;;;;30.90;6.20;;;;;;;6.95;68.25;101000.97;5078644;28;20051;-58
2022/01/31 10:22:53;;;;;;;32.78;5.63;;;;;;;6.95;68.47;100995.63;5074493;28;20055;-54
2022/01/31 10:25:23;;;;;;;33.70;6.15;;;;;;;6.95;68.43;100984.94;5080607;28;20072;-60
2022/01/31 10:28:12;;;;;;;31.13;6.22;;;;;;;6.90;68.11;101003.44;5077478;28;20068;-58
2022/01/31 10:30:40;;;;;;;25.23;6.95;;;;;;;6.91;68.38;100998.91;5079747;28;20048;-59
2022/01/31 10:33:10;;;;;;;34.50;7.00;;;;;;;6.95;67.79;101011.66;5081802;28;20044;-58
2022/01/31 10:35:39;;;;;;;27.55;5.32;;;;;;;6.96;67.35;101025.84;5081963;28;20117;-57
2022/01/31 10:38:11;;;;;;;29.33;5.30;;;;;;;6.99;67.25;101020.94;5079492;28;20048;-59
2022/01/31 10:50:37;;;;;;;22.90;4.60;;;;;;;7.38;64.93;101014.22;5067729;28;20056;-58
2022/01/31 10:52:26;;;;;;;31.05;5.90;;;;;;;7.71;64.01;101014.38;5084390;28;20055;-58
2022/01/31 10:54:55;;;;;;;28.50;6.93;;;;;;;7.67;62.90;101031.88;5077207;28;20090;-58
2022/01/31 10:57:23;;;;;;;33.30;6.32;;;;;;;7.57;63.71;101028.72;5084879;28;20074;-58
2022/01/31 10:59:56;;;;;;;31.23;4.82;;;;;;;7.42;63.62;101035.03;5074120;28;20045;-59
2022/01/31 11:02:26;;;;;;;35.47;7.25;;;;;;;7.29;64.72;101068.84;5066166;28;20177;-59
2022/01/31 11:04:56;;;;;;;29.65;5.80;;;;;;;7.20;65.98;101052.13;5075594;28;20048;-59
2022/01/31 11:07:26;;;;;;;27.77;6.45;;;;;;;7.14;66.16;101055.59;5079930;28;20109;-59
2022/01/31 11:09:55;;;;;;;30.38;7.05;;;;;;;7.10;66.90;101054.31;5077163;28;20044;-58
2022/01/31 11:12:23;;;;;;;32.03;5.35;;;;;;;7.08;67.17;101048.34;5084315;28;20106;-58
2022/01/31 11:14:54;;;;;;;33.20;6.85;;;;;;;7.02;67.52;101054.47;5085727;28;20052;-59
2022/01/31 11:17:24;;;;;;;25.90;7.10;;;;;;;6.94;67.37;101058.09;5075190;28;20045;-59
2022/01/31 11:19:56;;;;;;;24.85;5.65;;;;;;;6.93;67.93;101059.16;5082187;28;20048;-59
2022/01/31 11:22:31;;;;;;;33.38;5.78;;;;;;;6.92;67.77;101059.34;5078322;28;20064;-59
2022/01/31 11:25:17;;;;;;;26.00;5.25;;;;;;;6.88;67.99;101061.56;5089081;28;20070;-57
2022/01/31 11:27:52;;;;;;;34.85;6.10;;;;;;;6.91;67.89;101057.69;5075278;28;20178;-59
2022/01/31 11:30:20;;;;;;;26.90;5.45;;;;;;;6.89;68.44;101084.59;5074173;28;21373;-57
2022/01/31 11:32:49;;;;;;;31.45;6.53;;;;;;;6.80;68.02;101080.41;5078439;28;20048;-58
2022/01/31 11:35:17;;;;;;;37.85;7.03;;;;;;;6.77;68.31;101084.28;5084409;28;20051;-59
2022/01/31 11:37:46;;;;;;;32.28;5.82;;;;;;;6.78;68.33;101077.94;5077539;28;20036;-59
2022/01/31 11:40:15;;;;;;;34.00;7.53;;;;;;;6.75;68.37;101075.63;5076788;28;20080;-59
2022/01/31 11:42:43;;;;;;;31.90;5.75;;;;;;;6.74;68.23;101082.00;5081994;28;20067;-59
2022/01/31 11:45:17;;;;;;;32.50;5.25;;;;;;;6.72;68.33;101091.22;5082751;28;20055;-58
2022/01/31 11:47:48;;;;;;;31.35;6.25;;;;;;;6.68;68.26;101093.44;5084651;28;20080;-58
2022/01/31 11:50:17;;;;;;;31.17;6.85;;;;;;;6.66;68.48;101084.78;5085743;28;20040;-58